Flight Track Log - Related Links

Times and Time Zones

All times are in EDT time to prevent confusion due to time zone crossing. See the SKW6306 flight status page for this flight to view local times or setup timezone preferences in your user account.

Time Position Orientation Groundspeed Altitude Reporting Facility
EDT Latitude Longitude Course Direction KTS MPH feet Rate Location/Type
Sun 04:45:46 PM 52.1500 -106.7000 197° South 10 12 1,700  Level Winnipeg Center
Sun 04:46:46 PM 52.1667 -106.7500 299° West 160 184 2,200 850 Climbing Winnipeg Center
Sun 04:47:46 PM 52.1667 -106.8333 270° West 190 219 3,400 1,750 Climbing Winnipeg Center
Sun 04:48:46 PM 52.1000 -106.8500 189° South 240 276 5,700 2,250 Climbing Winnipeg Center
Sun 04:49:46 PM 52.0167 -106.8833 194° South 270 311 7,900 2,300 Climbing Winnipeg Center
Sun 04:50:00 PM 51.7294 -106.9354 197° South  Level FlightAware Approximate
Sun 04:50:46 PM 51.9500 -106.9333 205° Southwest 280 322 10,300  Level Winnipeg Center
Sun 04:51:46 PM 51.8667 -106.9667 194° South 290 334 12,300 1,900 Climbing Winnipeg Center
Sun 04:52:46 PM 51.8000 -107.0000 197° South 310 357 14,100 1,650 Climbing Winnipeg Center
Sun 04:53:46 PM 51.7000 -107.0333 192° South 330 380 15,600 1,350 Climbing Winnipeg Center
Sun 04:54:46 PM 51.6167 -107.1000 206° Southwest 340 391 16,800 1,400 Climbing Winnipeg Center
Sun 04:55:46 PM 51.5167 -107.1333 192° South 360 414 18,400 1,400 Climbing Winnipeg Center
Sun 04:56:46 PM 51.4167 -107.1833 197° South 360 414 19,600 1,150 Climbing Winnipeg Center
Sun 04:57:46 PM 51.3167 -107.2500 203° Southwest 370 426 20,700 1,000 Climbing Winnipeg Center
Sun 04:58:46 PM 51.2167 -107.2833 192° South 380 437 21,600 1,000 Climbing Winnipeg Center
Sun 04:59:46 PM 51.1000 -107.3333 195° South 390 449 22,700 1,050 Climbing Winnipeg Center
Sun 05:00:46 PM 51.0000 -107.3833 197° South 390 449 23,700 1,000 Climbing Winnipeg Center
Sun 05:01:46 PM 50.9000 -107.4167 192° South 390 449 24,700 950 Climbing Winnipeg Center
Sun 05:02:46 PM 50.8000 -107.4833 203° Southwest 390 449 25,600 900 Climbing Winnipeg Center
Sun 05:03:46 PM 50.7000 -107.5333 198° South 390 449 26,500 950 Climbing Winnipeg Center
Sun 05:04:46 PM 50.6000 -107.5667 192° South 390 449 27,500 900 Climbing Winnipeg Center
Sun 05:05:46 PM 50.4833 -107.6167 195° South 380 437 28,300 850 Climbing Winnipeg Center
Sun 05:06:46 PM 50.3833 -107.6667 198° South 380 437 29,200 750 Climbing Winnipeg Center
Sun 05:07:46 PM 50.3000 -107.7000 194° South 380 437 29,800 550 Climbing Winnipeg Center
Sun 05:08:46 PM 50.2000 -107.7333 192° South 390 449 30,300 550 Climbing Winnipeg Center
Sun 05:09:46 PM 50.0833 -107.7333 180° South 400 460 30,900 550 Climbing Winnipeg Center
Sun 05:10:46 PM 49.9500 -107.7500 185° South 400 460 31,400 450 Climbing Winnipeg Center
Sun 05:11:46 PM 49.8500 -107.7667 186° South 400 460 31,800 350 Climbing Winnipeg Center
Sun 05:12:46 PM 49.7333 -107.7833 185° South 400 460 32,100 400 Climbing Winnipeg Center
Sun 05:13:46 PM 49.6167 -107.7833 180° South 410 472 32,600 450 Climbing Winnipeg Center
Sun 05:14:46 PM 49.5167 -107.8167 192° South 410 472 33,000 198 Climbing Winnipeg Center
Sun 05:15:47 PM 49.4000 -107.8167 180° South 410 472 33,000  Level Winnipeg Center
Sun 05:16:46 PM 49.2667 -107.8333 185° South 420 483 33,000  Level Winnipeg Center
Sun 05:17:46 PM 49.1500 -107.8667 191° South 420 483 33,000  Level Winnipeg Center
Sun 05:18:46 PM 49.0333 -107.8667 180° South 420 483 33,000  Level Winnipeg Center
Sun 05:19:46 PM 48.9167 -107.8833 185° South 430 495 33,000  Level Winnipeg Center
Sun 05:20:47 PM 48.8167 -107.8833 180° South 420 483 33,000  Level Winnipeg Center
Sun 05:21:46 PM 48.6833 -107.9000 185° South 430 495 33,000  Level Winnipeg Center
Sun 05:22:46 PM 48.5833 -107.9000 180° South 430 495 33,000  Level Winnipeg Center
Sun 05:23:46 PM 48.4500 -107.9333 189° South 430 495 33,000  Level Winnipeg Center
Sun 05:24:46 PM 48.3333 -107.9333 180° South 420 483 33,000  Level Winnipeg Center
Sun 05:25:46 PM 48.2167 -107.9500 185° South 420 483 33,000  Level Winnipeg Center
Sun 05:26:46 PM 48.1000 -107.9833 191° South 430 495 33,000  Level Winnipeg Center
Sun 05:27:46 PM 47.9833 -107.9833 180° South 430 495 33,000  Level Winnipeg Center
Sun 05:28:16 PM 47.9550 -107.9528 144° Southeast 429 494 33,000  Level Salt Lake Center
Sun 05:29:18 PM 47.8350 -107.9656 184° South 431 496 33,000  Level Salt Lake Center
Sun 05:30:20 PM 47.6925 -107.9814 184° South 430 495 33,000  Level Salt Lake Center
Sun 05:31:22 PM 47.5742 -107.9931 184° South 429 494 33,000  Level Salt Lake Center
Sun 05:32:24 PM 47.4558 -107.9828 177° South 430 495 33,000  Level Salt Lake Center
Sun 05:33:26 PM 47.3383 -107.9403 166° South 438 504 33,000  Level Salt Lake Center
Sun 05:34:28 PM 47.2206 -107.8958 166° South 435 501 33,000  Level Salt Lake Center
Sun 05:35:30 PM 47.0908 -107.8489 166° South 436 502 33,000  Level Salt Lake Center
Sun 05:36:32 PM 46.9717 -107.8067 166° South 439 505 33,000  Level Salt Lake Center
Sun 05:37:34 PM 46.8536 -107.7631 166° South 439 505 33,000  Level Salt Lake Center
Sun 05:38:36 PM 46.7361 -107.7214 166° South 438 504 33,000  Level Salt Lake Center
Sun 05:39:38 PM 46.5881 -107.6669 166° South 440 506 33,000  Level Salt Lake Center
Sun 05:40:40 PM 46.4711 -107.6250 166° South 437 503 33,000  Level Salt Lake Center
Sun 05:41:42 PM 46.3533 -107.5842 167° South 438 504 33,000  Level Salt Lake Center
Sun 05:42:44 PM 46.2275 -107.5392 166° South 435 501 33,000  Level Salt Lake Center
Sun 05:43:46 PM 46.1108 -107.4969 166° South 437 503 33,000  Level Salt Lake Center
Sun 05:44:48 PM 45.9847 -107.4528 166° South 437 503 33,000  Level Salt Lake Center
Sun 05:45:50 PM 45.8672 -107.4125 167° South 435 501 33,000  Level Salt Lake Center
Sun 05:46:52 PM 45.7408 -107.3692 167° South 434 499 33,000  Level Salt Lake Center
Sun 05:47:54 PM 45.6242 -107.3294 167° South 436 502 33,000  Level Salt Lake Center
Sun 05:48:56 PM 45.4975 -107.2850 166° South 436 502 33,000  Level Salt Lake Center
Sun 05:49:58 PM 45.3914 -107.2492 167° South 433 498 33,000  Level Salt Lake Center
Sun 05:51:00 PM 45.2683 -107.2081 167° South 427 491 33,000  Level Salt Lake Center
Sun 05:52:02 PM 45.1444 -107.1653 166° South 430 495 33,000  Level Salt Lake Center
Sun 05:53:04 PM 45.0139 -107.1214 167° South 431 496 33,000  Level Salt Lake Center
Sun 05:54:06 PM 44.9036 -107.0844 167° South 428 493 33,000  Level Salt Lake Center
Sun 05:55:08 PM 44.7933 -107.0494 167° South 427 491 33,000  Level Salt Lake Center
Sun 05:56:10 PM 44.6644 -107.0178 170° South 422 486 33,000  Level Salt Lake Center
Sun 05:57:12 PM 44.5542 -106.9894 170° South 421 484 33,000  Level Salt Lake Center
Sun 05:58:14 PM 44.4242 -106.9564 170° South 425 489 33,000  Level Salt Lake Center
Sun 05:59:15 PM 44.3125 -106.9281 170° South 426 490 33,000  Level Salt Lake Center
Sun 06:00:17 PM 44.1836 -106.8942 169° South 425 489 33,000  Level Salt Lake Center
Sun 06:01:10 PM 44.1081 -106.8767 171° South 425 489 33,000  Level Denver Center
Sun 06:02:21 PM 43.9433 -106.8369 170° South 422 486 33,000  Level Salt Lake Center
Sun 06:03:23 PM 43.8328 -106.8103 170° South 422 486 33,000  Level Salt Lake Center
Sun 06:04:16 PM 43.7231 -106.7808 169° South 420 483 33,000  Level Denver Center
Sun 06:05:18 PM 43.6133 -106.7533 170° South 419 482 33,000  Level Denver Center
Sun 06:06:19 PM 43.4858 -106.7231 170° South 418 481 33,000  Level Denver Center
Sun 06:07:21 PM 43.3758 -106.6961 170° South 418 481 33,000  Level Denver Center
Sun 06:08:23 PM 43.2658 -106.6711 171° South 419 482 33,000  Level Denver Center
Sun 06:09:37 PM 43.1375 -106.6383 169° South 420 483 33,000  Level Denver Center
Sun 06:10:39 PM 42.9914 -106.6047 170° South 418 481 33,000  Level Denver Center
Sun 06:11:41 PM 42.8811 -106.5778 170° South 420 483 33,000  Level Denver Center
Sun 06:12:54 PM 42.7547 -106.5481 170° South 415 478 33,000  Level Denver Center
Sun 06:13:57 PM 42.6261 -106.5181 170° South 420 483 33,000  Level Denver Center
Sun 06:14:58 PM 42.5356 -106.4958 170° South 417 480 33,000  Level Denver Center
Sun 06:16:00 PM 42.3903 -106.4625 170° South 416 479 33,000  Level Denver Center
Sun 06:17:02 PM 42.2625 -106.4314 170° South 417 480 33,000  Level Denver Center
Sun 06:18:03 PM 42.1719 -106.4103 170° South 417 480 33,000 -244 Level Denver Center
Sun 06:19:05 PM 42.0278 -106.3753 170° South 413 475 32,500 -581 Descending Denver Center
Sun 06:20:07 PM 41.9314 -106.3314 161° South 390 449 31,800 -585 Descending Denver Center
Sun 06:21:08 PM 41.8550 -106.2897 158° South 376 433 31,300 -677 Descending Denver Center
Sun 06:22:11 PM 41.7367 -106.2269 158° South 363 418 30,400 -629 Descending Denver Center
Sun 06:23:12 PM 41.6508 -106.1786 157° South 353 406 30,000 -194 Descending Denver Center
Sun 06:24:15 PM 41.5508 -106.1256 158° South 348 400 30,000  Level Denver Center
Sun 06:25:16 PM 41.4642 -106.0792 158° South 351 404 30,000  Level Denver Center
Sun 06:26:18 PM 41.3603 -106.0250 159° South 357 411 30,000  Level Denver Center
Sun 06:27:19 PM 41.2703 -105.9756 158° South 363 418 30,000  Level Denver Center
Sun 06:28:33 PM 41.1656 -105.9203 158° South 363 418 30,000  Level Denver Center
Sun 06:29:35 PM 41.0644 -105.8675 159° South 351 404 30,000  Level Denver Center
Sun 06:30:37 PM 40.9661 -105.8156 158° South 342 394 30,000 -339 Level Denver Center
Sun 06:31:39 PM 40.8825 -105.7442 147° Southeast 359 413 29,300 -488 Descending Denver Center
Sun 06:32:40 PM 40.8067 -105.6592 140° Southeast 361 415 29,000 -195 Descending Denver Center
Sun 06:33:42 PM 40.7339 -105.5803 141° Southeast 345 397 28,900 -484 Descending Denver Center
Sun 06:34:44 PM 40.6575 -105.4997 141° Southeast 349 402 28,000 -439 Descending Denver Center
Sun 06:35:45 PM 40.5964 -105.4333 140° Southeast 357 411 28,000 -146 Level Denver Center
Sun 06:36:47 PM 40.4869 -105.4472 186° South 311 358 27,700 -581 Descending Denver Center
Sun 06:37:49 PM 40.4794 -105.5386 264° West 324 373 26,800 -968 Descending Denver Center
Sun 06:38:51 PM 40.5458 -105.6567 307° West 337 388 25,700 -976 Descending Denver Center
Sun 06:39:52 PM 40.6008 -105.7489 308° West 326 375 24,800 -829 Descending Denver Center
Sun 06:40:54 PM 40.6892 -105.7747 347° North 362 417 24,000 -387 Descending Denver Center
Sun 06:41:56 PM 40.7294 -105.6633 64° Northeast 361 415 24,000  Level Denver Center
Sun 06:42:57 PM 40.6769 -105.5642 125° Southeast 336 387 24,000 -439 Level Denver Center
Sun 06:43:59 PM 40.6058 -105.4461 128° Southeast 343 395 23,100 -823 Descending Denver Center
Sun 06:45:01 PM 40.5333 -105.4047 157° South 307 353 22,300 -532 Descending Denver Center
Sun 06:46:03 PM 40.4625 -105.4683 214° Southwest 316 364 22,000 -195 Descending Denver Center
Sun 06:47:04 PM 40.4983 -105.5719 294° West 340 391 21,900 -390 Descending Denver Center
Sun 06:48:06 PM 40.5636 -105.6617 314° West 341 392 21,200 -629 Descending Denver Center
Sun 06:49:08 PM 40.6561 -105.6403 10° North 362 417 20,600 -537 Descending Denver Center
Sun 06:50:09 PM 40.6622 -105.5383 85° East 355 409 20,100 -1,122 Descending Denver Center
Sun 06:51:11 PM 40.5686 -105.4122 134° Southeast 338 389 18,300 -1,500 Descending Denver Center
Sun 06:52:13 PM 40.4892 -105.3303 142° Southeast 357 411 17,000 -871 Descending Denver Center
Sun 06:53:15 PM 40.4100 -105.2433 140° Southeast 335 386 16,500 -919 Descending Denver Center
Sun 06:54:17 PM 40.3358 -105.1728 144° Southeast 328 377 15,100 -1,111 Descending Denver Center
Sun 06:55:30 PM 40.2547 -105.1661 176° South 282 325 14,000 -933 Descending Denver Center
Sun 06:56:32 PM 40.1758 -105.1581 176° South 264 304 13,000 -484 Descending Denver Center
Sun 06:57:34 PM 40.0869 -105.1497 176° South 261 300 13,000 -290 Level Denver Center
Sun 06:58:36 PM 40.0136 -105.1453 177° South 263 303 12,400 -574 Descending Denver Center
Sun 06:59:50 PM 39.9386 -105.1458 180° South 251 289 11,700 -1,191 Descending Denver Center
Sun 07:00:52 PM 39.8683 -105.1244 167° South 231 266 9,700 -1,306 Descending Denver Center
Sun 07:01:54 PM 39.8514 -105.0486 106° East 222 255 9,000 -585 Descending Denver Center
Sun 07:02:55 PM 39.8417 -104.9689 99° East 211 243 8,500 -537 Descending Denver Center
Sun 07:03:57 PM 39.8422 -104.8950 89° East 205 236 7,900 -581 Descending Denver Center

Login

Don't have an account? Register now (free) for customized features, flight alerts, and more!